Time;durP1;ratioP1;P1;durP2;ratioP2;P2;SDS_P1;SDS_P2;PMS_P1;PMS_P2;Temp;Humidity;BMP_temperature;BMP_pressure;BME280_temperature;BME280_humidity;BME280_pressure;Samples;Min_cycle;Max_cycle;Signal;HPM_P1;HPM_P2
2022/05/03 00:02:36;;;;;;;12.70;8.73;;;;;;;9.15;100.00;98558.88;5022247;28;20491;-70
2022/05/03 00:05:09;;;;;;;10.32;7.88;;;;;;;9.29;100.00;98574.09;5029785;28;20040;-69
2022/05/03 00:07:55;;;;;;;12.05;8.50;;;;;;;9.25;100.00;98580.94;5025837;28;20124;-69
2022/05/03 00:10:27;;;;;;;11.23;7.32;;;;;;;9.24;100.00;98584.66;5027469;28;20026;-68
2022/05/03 00:12:57;;;;;;;12.07;6.97;;;;;;;9.20;100.00;98572.63;5034680;28;20107;-69
2022/05/03 00:15:23;;;;;;;10.05;6.70;;;;;;;9.12;100.00;98559.28;5032969;28;20033;-69
2022/05/03 00:17:50;;;;;;;10.55;6.93;;;;;;;9.16;100.00;98560.53;5029473;28;20091;-69
2022/05/03 00:20:17;;;;;;;12.60;7.60;;;;;;;9.23;100.00;98572.22;5034429;28;20017;-69
2022/05/03 00:22:43;;;;;;;10.43;7.03;;;;;;;9.23;100.00;98564.13;5032810;28;20454;-69
2022/05/03 00:25:09;;;;;;;11.73;6.45;;;;;;;9.27;100.00;98578.84;5033723;28;20059;-69
2022/05/03 00:27:35;;;;;;;9.48;6.63;;;;;;;9.30;100.00;98564.97;5034669;28;20040;-69
2022/05/03 00:30:02;;;;;;;10.23;6.13;;;;;;;9.34;100.00;98558.13;5035701;28;20025;-69
2022/05/03 00:32:28;;;;;;;9.52;6.82;;;;;;;9.38;100.00;98561.28;5029919;28;20018;-69
2022/05/03 00:34:56;;;;;;;9.32;6.95;;;;;;;9.37;100.00;98557.72;5035427;28;20031;-69
2022/05/03 00:37:22;;;;;;;8.10;6.47;;;;;;;9.33;100.00;98561.06;5032073;28;20033;-69
2022/05/03 00:39:47;;;;;;;10.30;7.03;;;;;;;9.35;100.00;98551.72;5034658;28;20025;-68
2022/05/03 00:42:20;;;;;;;8.82;6.40;;;;;;;9.38;100.00;98553.19;5035439;28;20021;-69
2022/05/03 00:45:13;;;;;;;10.40;6.57;;;;;;;9.44;100.00;98550.50;5026658;28;20025;-68
2022/05/03 00:47:52;;;;;;;8.00;6.22;;;;;;;9.41;100.00;98550.91;5032237;28;20038;-68
2022/05/03 00:50:20;;;;;;;8.15;6.25;;;;;;;9.46;100.00;98560.25;5032099;28;20033;-69
2022/05/03 00:52:58;;;;;;;8.93;6.47;;;;;;;9.48;100.00;98555.47;5030986;28;20386;-68
2022/05/03 00:55:54;;;;;;;10.45;6.57;;;;;;;9.47;100.00;98551.94;5031663;28;20022;-68
2022/05/03 00:58:32;;;;;;;9.63;6.65;;;;;;;9.44;100.00;98563.16;5028671;28;20108;-68
2022/05/03 01:01:05;;;;;;;8.75;6.07;;;;;;;9.41;100.00;98550.91;5032127;28;20037;-68
2022/05/03 01:03:52;;;;;;;9.27;5.85;;;;;;;9.40;100.00;98554.63;5033233;28;20470;-68
2022/05/03 01:06:29;;;;;;;8.02;5.60;;;;;;;9.38;100.00;98543.22;5026665;28;20025;-68
2022/05/03 01:09:05;;;;;;;10.00;5.95;;;;;;;9.39;100.00;98550.25;5028245;28;20033;-69
2022/05/03 01:11:55;;;;;;;7.40;5.30;;;;;;;9.27;100.00;98538.38;5031574;28;20037;-69
2022/05/03 01:14:37;;;;;;;8.88;5.65;;;;;;;9.34;100.00;98552.72;5029675;28;20056;-69
2022/05/03 01:17:10;;;;;;;8.48;6.50;;;;;;;9.25;100.00;98545.00;5046214;28;20026;-69
2022/05/03 01:19:50;;;;;;;9.45;7.03;;;;;;;9.14;100.00;98536.47;5048227;28;20395;-69
2022/05/03 01:22:21;;;;;;;9.00;6.55;;;;;;;9.11;100.00;98542.25;5028781;28;20021;-69
2022/05/03 01:25:19;;;;;;;10.30;7.20;;;;;;;9.09;100.00;98554.28;5030782;28;20111;-69
2022/05/03 01:28:03;;;;;;;9.05;6.88;;;;;;;9.03;100.00;98544.28;5034098;28;20125;-69
2022/05/03 01:30:30;;;;;;;12.07;7.28;;;;;;;9.10;100.00;98542.47;5047668;28;20076;-69
2022/05/03 01:33:06;;;;;;;7.60;6.35;;;;;;;9.07;100.00;98548.25;5028341;28;20410;-69
2022/05/03 01:35:38;;;;;;;9.18;6.85;;;;;;;8.96;100.00;98546.94;5033560;28;20022;-69
2022/05/03 01:38:15;;;;;;;8.80;6.53;;;;;;;8.98;100.00;98551.09;5047341;28;20654;-69
2022/05/03 01:40:43;;;;;;;8.60;6.35;;;;;;;8.90;100.00;98548.56;5032855;28;20033;-68
2022/05/03 01:43:18;;;;;;;8.73;6.63;;;;;;;8.80;100.00;98540.00;5031745;28;20069;-68
2022/05/03 01:45:56;;;;;;;9.98;7.30;;;;;;;8.81;100.00;98557.88;5029521;28;20030;-68
2022/05/03 01:51:35;;;;;;;11.88;8.10;;;;;;;8.71;100.00;98543.91;5031499;28;20032;-68
2022/05/03 01:54:14;;;;;;;;;;;;;;;8.70;100.00;98551.16;5031389;28;20040;-69
2022/05/03 01:56:57;;;;;;;16.27;7.95;;;;;;;8.63;100.00;98560.22;5028408;28;19997;-69
2022/05/03 01:59:35;;;;;;;10.93;7.72;;;;;;;8.58;100.00;98552.72;5030712;28;20132;-68
2022/05/03 02:02:26;;;;;;;13.27;8.23;;;;;;;8.53;100.00;98550.63;5032927;28;20402;-68
2022/05/03 02:05:07;;;;;;;12.95;8.07;;;;;;;8.40;100.00;98555.91;5046384;28;20120;-69
2022/05/03 02:07:52;;;;;;;11.23;7.90;;;;;;;8.28;100.00;98554.75;5026545;28;20036;-69
2022/05/03 02:10:57;;;;;;;12.57;7.75;;;;;;;8.24;100.00;98553.47;5027573;28;20104;-69
2022/05/03 02:16:49;;;;;;;9.27;6.95;;;;;;;8.40;100.00;98544.28;5039582;22;20168;-64
2022/05/03 02:19:44;;;;;;;10.82;7.28;;;;;;;8.31;100.00;98541.72;5025882;28;20064;-64
2022/05/03 02:22:47;;;;;;;11.20;7.55;;;;;;;8.22;100.00;98547.44;5029546;28;20029;-65
2022/05/03 02:25:34;;;;;;;11.45;8.18;;;;;;;7.92;100.00;98522.53;5045767;28;20029;-65
2022/05/03 02:28:04;;;;;;;11.32;7.57;;;;;;;7.92;100.00;98542.22;5031830;28;20021;-65
2022/05/03 02:30:32;;;;;;;12.18;7.45;;;;;;;7.87;100.00;98545.47;5031061;28;20033;-64
2022/05/03 02:33:31;;;;;;;13.43;8.10;;;;;;;7.78;100.00;98551.16;5030653;28;20091;-66
2022/05/03 02:35:58;;;;;;;11.77;8.63;;;;;;;7.74;100.00;98553.41;5007830;28;20460;-64
2022/05/03 02:38:36;;;;;;;11.23;7.95;;;;;;;7.95;100.00;98555.28;5031256;28;20114;-66
2022/05/03 02:41:03;;;;;;;11.05;8.10;;;;;;;7.92;100.00;98542.22;5030015;28;20026;-63
2022/05/03 02:43:30;;;;;;;11.57;7.78;;;;;;;8.00;100.00;98541.25;5029632;28;20028;-66
2022/05/03 02:46:15;;;;;;;12.43;8.70;;;;;;;8.05;100.00;98552.28;5029643;28;20029;-66
2022/05/03 02:48:52;;;;;;;13.27;8.60;;;;;;;8.04;100.00;98554.16;5031341;28;20025;-65
2022/05/03 02:51:21;;;;;;;11.88;8.15;;;;;;;7.94;100.00;98553.63;5024688;28;20391;-66
2022/05/03 02:53:52;;;;;;;12.57;8.82;;;;;;;7.84;100.00;98542.34;5031934;28;20088;-66
2022/05/03 02:56:34;;;;;;;10.70;7.85;;;;;;;7.88;100.00;98552.50;5028779;28;20017;-66
2022/05/03 02:59:14;;;;;;;14.13;8.30;;;;;;;7.80;100.00;98544.56;5030355;28;20444;-64
2022/05/03 03:01:59;;;;;;;13.95;8.77;;;;;;;7.64;100.00;98540.25;5026510;28;20021;-66
2022/05/03 03:04:33;;;;;;;11.35;7.93;;;;;;;7.50;100.00;98540.31;5033813;28;20030;-64
2022/05/03 03:06:59;;;;;;;11.05;7.72;;;;;;;7.42;100.00;98538.59;5030760;28;20068;-64
2022/05/03 03:09:31;;;;;;;10.85;6.53;;;;;;;7.36;100.00;98524.03;5041192;28;20077;-73
2022/05/03 03:12:03;;;;;;;11.18;7.57;;;;;;;7.49;100.00;98541.34;5048689;28;20022;-68
2022/05/03 03:14:42;;;;;;;11.60;8.02;;;;;;;7.34;100.00;98530.63;5051163;28;20017;-68
2022/05/03 03:17:10;;;;;;;10.98;7.80;;;;;;;7.44;100.00;98518.53;5049747;28;20029;-74
2022/05/03 03:19:46;;;;;;;10.27;7.57;;;;;;;7.40;100.00;98529.84;5048936;28;20056;-74
2022/05/03 03:22:13;;;;;;;13.07;7.82;;;;;;;7.28;100.00;98504.44;5044681;28;20026;-76
2022/05/03 03:24:39;;;;;;;13.60;7.85;;;;;;;7.25;100.00;98532.56;5031961;28;20104;-73
2022/05/03 03:27:06;;;;;;;9.38;6.72;;;;;;;7.06;100.00;98515.16;5026076;28;20021;-75
2022/05/03 03:29:32;;;;;;;10.00;7.55;;;;;;;7.03;100.00;98532.53;5028213;28;20029;-73
2022/05/03 03:32:00;;;;;;;9.70;7.53;;;;;;;7.08;100.00;98539.22;5026867;28;20072;-71
2022/05/03 03:34:27;;;;;;;10.43;7.72;;;;;;;7.12;100.00;98541.31;5042907;28;20429;-70
2022/05/03 03:37:01;;;;;;;12.40;7.65;;;;;;;6.98;100.00;98517.97;5031032;28;20061;-72
2022/05/03 03:39:30;;;;;;;12.85;8.10;;;;;;;7.20;100.00;98535.00;5030983;28;20025;-71
2022/05/03 03:41:58;;;;;;;12.13;7.97;;;;;;;7.10;100.00;98518.31;5031075;28;20113;-71
2022/05/03 03:44:24;;;;;;;9.93;7.43;;;;;;;7.02;100.00;98513.88;5032078;28;20113;-72
2022/05/03 03:46:50;;;;;;;9.95;7.20;;;;;;;7.08;100.00;98537.34;5034333;28;20100;-72
2022/05/03 03:49:15;;;;;;;10.50;7.88;;;;;;;7.30;100.00;98545.47;5034512;28;20025;-73
2022/05/03 03:51:42;;;;;;;11.18;8.07;;;;;;;7.35;100.00;98540.34;5033854;28;20550;-74
2022/05/03 03:54:07;;;;;;;13.38;8.05;;;;;;;7.07;100.00;98510.63;5036008;28;20676;-73
2022/05/03 03:56:33;;;;;;;11.32;8.98;;;;;;;7.15;100.00;98527.50;5049320;28;20022;-71
2022/05/03 03:58:58;;;;;;;13.25;9.02;;;;;;;7.00;100.00;98515.94;5049554;28;20029;-72
2022/05/03 04:01:25;;;;;;;13.25;8.85;;;;;;;7.18;100.00;98550.50;5048791;28;20037;-72
2022/05/03 04:03:51;;;;;;;12.77;8.73;;;;;;;6.99;100.00;98541.97;5034793;28;20030;-71
2022/05/03 04:06:17;;;;;;;12.90;9.35;;;;;;;6.84;100.00;98516.97;5035295;28;20021;-70
2022/05/03 04:08:42;;;;;;;12.35;9.15;;;;;;;7.06;100.00;98555.53;5034787;28;20496;-71
2022/05/03 04:11:15;;;;;;;16.45;10.30;;;;;;;7.23;100.00;98543.53;5046642;28;20029;-68
2022/05/03 04:13:41;;;;;;;14.00;9.90;;;;;;;7.32;100.00;98546.94;5048838;28;20395;-71
2022/05/03 04:16:08;;;;;;;13.43;9.38;;;;;;;7.11;100.00;98520.00;5032924;28;20021;-73
2022/05/03 04:18:44;;;;;;;14.05;9.40;;;;;;;7.23;100.00;98548.91;5032137;28;20060;-69
2022/05/03 04:21:15;;;;;;;13.15;9.05;;;;;;;7.36;100.00;98558.16;5029039;28;20446;-69
2022/05/03 04:23:40;;;;;;;12.13;8.60;;;;;;;7.18;100.00;98542.44;5029397;28;20422;-70
2022/05/03 04:26:06;;;;;;;13.55;9.35;;;;;;;7.13;100.00;98520.66;5048613;28;20017;-69
2022/05/03 04:28:31;;;;;;;12.57;8.55;;;;;;;7.22;100.00;98541.84;5034180;28;20116;-71
2022/05/03 04:30:56;;;;;;;12.60;8.98;;;;;;;7.24;100.00;98539.81;5035077;28;20049;-70
2022/05/03 04:33:22;;;;;;;17.67;8.93;;;;;;;7.42;100.00;98562.81;5029525;28;20021;-70
2022/05/03 04:35:47;;;;;;;12.07;8.02;;;;;;;7.33;100.00;98531.63;5028610;28;20048;-70
2022/05/03 04:38:12;;;;;;;11.38;7.85;;;;;;;7.36;100.00;98523.16;5031176;28;20083;-69
2022/05/03 04:40:37;;;;;;;12.45;8.40;;;;;;;7.43;100.00;98527.59;5034257;28;20032;-74
2022/05/03 04:43:03;;;;;;;12.07;7.97;;;;;;;7.81;100.00;98567.78;5033268;28;20065;-73
2022/05/03 04:45:28;;;;;;;12.45;8.40;;;;;;;7.61;100.00;98537.94;5033461;28;20112;-71
2022/05/03 04:47:53;;;;;;;11.27;7.65;;;;;;;7.74;100.00;98542.66;5034489;28;20411;-71
2022/05/03 04:50:19;;;;;;;11.68;7.78;;;;;;;7.81;100.00;98559.72;5032827;28;20022;-72
2022/05/03 04:52:44;;;;;;;11.63;8.85;;;;;;;7.87;100.00;98566.19;5040391;28;20068;-74
2022/05/03 04:55:09;;;;;;;11.23;8.38;;;;;;;8.12;100.00;98589.03;5049514;28;20024;-70
2022/05/03 04:57:35;;;;;;;10.57;7.93;;;;;;;8.13;100.00;98560.22;5030054;28;20033;-73
2022/05/03 05:00:00;;;;;;;11.10;8.30;;;;;;;8.24;100.00;98562.38;5029567;28;20045;-71
2022/05/03 05:02:25;;;;;;;11.13;7.43;;;;;;;8.42;100.00;98571.91;5028112;28;20029;-72
2022/05/03 05:04:51;;;;;;;11.93;7.60;;;;;;;8.53;100.00;98566.78;5044216;28;20025;-72
2022/05/03 05:07:16;;;;;;;9.65;7.63;;;;;;;8.70;100.00;98553.03;5028417;28;20040;-72
2022/05/03 05:10:23;;;;;;;10.05;8.18;;;;;;;8.94;100.00;98589.50;5033709;28;20037;-65
2022/05/03 05:12:30;;;;;;;9.73;7.32;;;;;;;8.97;100.00;98587.22;5031276;28;20048;-67
2022/05/03 05:14:55;;;;;;;8.05;5.68;;;;;;;9.04;100.00;98591.81;5024493;28;20440;-67
2022/05/03 05:17:20;;;;;;;10.70;7.20;;;;;;;9.15;100.00;98596.66;5033978;28;20025;-68
2022/05/03 05:19:46;;;;;;;12.57;7.82;;;;;;;9.06;100.00;98571.69;5031943;28;20029;-68
2022/05/03 05:22:11;;;;;;;10.05;7.22;;;;;;;9.18;100.00;98571.97;5031576;28;20021;-72
2022/05/03 05:24:36;;;;;;;12.15;8.05;;;;;;;9.48;100.00;98591.41;5032428;28;20041;-66
2022/05/03 05:27:02;;;;;;;12.50;7.10;;;;;;;9.73;100.00;98591.72;5025373;28;20025;-65
2022/05/03 05:29:27;;;;;;;15.13;8.18;;;;;;;9.80;100.00;98589.88;5032536;28;20029;-67
2022/05/03 05:31:52;;;;;;;10.23;7.30;;;;;;;10.07;99.02;98584.53;5032287;28;20124;-66
2022/05/03 05:34:18;;;;;;;9.80;7.63;;;;;;;10.43;98.01;98595.00;5031351;28;20118;-65
2022/05/03 05:36:44;;;;;;;12.57;7.47;;;;;;;10.74;96.17;98585.41;5030336;28;20083;-73
2022/05/03 05:39:09;;;;;;;8.50;6.38;;;;;;;10.76;94.52;98583.31;5049221;28;20383;-74
2022/05/03 05:41:34;;;;;;;10.70;7.00;;;;;;;11.07;93.79;98593.47;5047018;28;20037;-66
2022/05/03 05:43:59;;;;;;;10.02;7.10;;;;;;;11.24;91.54;98595.72;5032954;28;20103;-64
2022/05/03 05:46:25;;;;;;;12.23;6.93;;;;;;;11.49;90.67;98593.16;5029120;28;20023;-65
2022/05/03 05:48:50;;;;;;;9.18;6.40;;;;;;;11.47;87.44;98573.56;5032257;28;20028;-70
2022/05/03 05:51:15;;;;;;;9.93;6.45;;;;;;;11.65;88.05;98587.22;5046933;28;20030;-70
2022/05/03 05:53:41;;;;;;;10.13;6.70;;;;;;;11.76;87.94;98574.88;5028981;28;20033;-71
2022/05/03 05:56:07;;;;;;;11.13;7.22;;;;;;;12.17;86.13;98595.31;5027146;28;20045;-71
2022/05/03 05:58:32;;;;;;;15.90;6.78;;;;;;;12.18;87.37;98586.97;5032009;28;20025;-72
2022/05/03 06:00:58;;;;;;;10.10;6.60;;;;;;;12.54;85.33;98606.31;5030191;28;20048;-65
2022/05/03 06:03:25;;;;;;;8.48;6.60;;;;;;;12.73;84.83;98594.47;5032399;28;20025;-67
2022/05/03 06:05:51;;;;;;;9.90;6.95;;;;;;;12.94;81.81;98595.94;5039449;28;20032;-67
2022/05/03 06:08:16;;;;;;;11.85;6.78;;;;;;;13.09;78.88;98588.28;5031007;28;20021;-70
2022/05/03 06:10:42;;;;;;;9.20;5.97;;;;;;;13.77;75.23;98603.59;5026924;28;20030;-72
2022/05/03 06:13:08;;;;;;;10.50;6.22;;;;;;;13.91;75.09;98578.94;5046855;28;20021;-66
2022/05/03 06:15:33;;;;;;;9.77;5.78;;;;;;;14.90;68.99;98601.94;5027333;28;20057;-66
2022/05/03 06:17:59;;;;;;;7.88;5.68;;;;;;;15.96;65.47;98576.41;5046715;28;20027;-68
2022/05/03 06:20:24;;;;;;;10.70;5.90;;;;;;;17.49;59.91;98592.53;5031404;28;20509;-70
2022/05/03 06:22:49;;;;;;;10.38;6.00;;;;;;;18.94;55.96;98588.34;5022388;28;20025;-70
2022/05/03 06:25:15;;;;;;;10.52;5.28;;;;;;;20.92;49.99;98597.53;5045104;28;20021;-68
2022/05/03 06:27:40;;;;;;;8.27;5.43;;;;;;;22.01;47.99;98597.00;5027912;28;20021;-65
2022/05/03 06:30:07;;;;;;;8.70;5.75;;;;;;;23.51;43.29;98590.03;5032145;28;20013;-66
2022/05/03 06:32:33;;;;;;;7.05;5.10;;;;;;;24.21;40.48;98575.63;5031959;28;20468;-66
2022/05/03 06:34:58;;;;;;;8.30;5.00;;;;;;;24.19;40.51;98599.19;5032102;28;20123;-66
2022/05/03 06:37:23;;;;;;;11.38;5.35;;;;;;;24.20;39.58;98595.28;5028741;28;20116;-70
2022/05/03 06:39:49;;;;;;;7.15;5.25;;;;;;;25.21;37.88;98580.16;5030313;28;20033;-66
2022/05/03 06:42:16;;;;;;;6.55;4.93;;;;;;;25.26;37.77;98588.38;5031643;28;20036;-73
2022/05/03 06:44:41;;;;;;;6.93;4.25;;;;;;;26.62;34.92;98568.34;5047358;28;20641;-65
2022/05/03 06:47:07;;;;;;;6.57;4.80;;;;;;;26.87;33.58;98595.44;5031004;28;20040;-71
2022/05/03 06:49:32;;;;;;;6.68;4.75;;;;;;;25.57;36.02;98575.59;5029857;28;20108;-73
2022/05/03 06:51:58;;;;;;;5.95;4.68;;;;;;;23.33;40.67;98588.84;5026973;28;20037;-74
2022/05/03 06:54:23;;;;;;;6.90;4.72;;;;;;;21.73;43.97;98604.00;5026371;28;20479;-67
2022/05/03 06:56:48;;;;;;;5.97;4.95;;;;;;;22.02;44.78;98606.09;5031004;28;20068;-67
2022/05/03 06:59:14;;;;;;;4.95;4.45;;;;;;;23.94;40.22;98597.56;5032290;28;20417;-68
2022/05/03 07:01:39;;;;;;;5.75;4.80;;;;;;;25.30;36.63;98578.31;5029758;28;20031;-72
2022/05/03 07:04:04;;;;;;;5.45;4.55;;;;;;;26.53;36.52;98590.47;5031876;28;20028;-71
2022/05/03 07:06:29;;;;;;;5.03;4.45;;;;;;;28.27;32.56;98571.03;5027807;28;20066;-70
2022/05/03 07:08:55;;;;;;;5.97;4.35;;;;;;;28.37;31.63;98570.72;5031467;28;20047;-74
2022/05/03 07:11:20;;;;;;;5.03;4.20;;;;;;;28.65;31.21;98559.31;5043453;28;20112;-70
2022/05/03 07:13:48;;;;;;;7.07;4.50;;;;;;;27.71;32.69;98582.69;5031450;28;20025;-71
2022/05/03 07:16:13;;;;;;;6.70;4.15;;;;;;;27.98;33.08;98580.81;5028669;28;20025;-71
2022/05/03 07:24:06;;;;;;;7.07;4.22;;;;;;;28.05;32.41;98585.91;5033381;28;20052;-68
2022/05/03 07:26:32;;;;;;;6.03;4.22;;;;;;;28.89;31.68;98578.28;5032908;28;20471;-68
2022/05/03 07:28:58;;;;;;;6.68;4.53;;;;;;;29.03;31.89;98590.06;5035061;28;20028;-69
2022/05/03 07:31:23;;;;;;;5.95;4.90;;;;;;;29.57;31.13;98570.88;5031951;28;20040;-69
2022/05/03 07:33:49;;;;;;;6.72;4.40;;;;;;;29.12;31.45;98590.06;5042708;28;20390;-70
2022/05/03 07:36:15;;;;;;;5.45;4.18;;;;;;;28.79;31.53;98594.19;5032763;28;20060;-71
2022/05/03 07:38:41;;;;;;;5.90;4.40;;;;;;;28.03;32.68;98590.97;5041976;28;20051;-69
2022/05/03 07:41:07;;;;;;;5.03;4.07;;;;;;;29.19;31.66;98595.94;5032527;28;20536;-71
2022/05/03 07:43:33;;;;;;;9.15;4.93;;;;;;;29.81;30.36;98592.59;5035155;28;20018;-71
2022/05/03 07:45:59;;;;;;;5.22;4.55;;;;;;;29.60;30.68;98591.69;5032513;28;20036;-65
2022/05/03 07:48:24;;;;;;;5.15;4.55;;;;;;;28.88;31.76;98599.72;5034427;28;20033;-69
2022/05/03 07:50:50;;;;;;;5.32;4.10;;;;;;;29.68;30.32;98588.06;5034513;28;20029;-73
2022/05/03 07:53:15;;;;;;;4.82;3.95;;;;;;;30.11;30.02;98593.44;5032053;28;20029;-72
2022/05/03 07:55:44;;;;;;;5.30;4.07;;;;;;;28.99;32.84;98600.22;5033719;28;20092;-70
2022/05/03 07:58:09;;;;;;;;;;;;;;;30.01;30.68;98598.59;5033960;28;20109;-69
2022/05/03 08:00:34;;;;;;;6.53;4.03;;;;;;;31.45;29.24;98600.03;5024115;28;20461;-70
2022/05/03 08:03:00;;;;;;;6.53;3.90;;;;;;;30.93;29.76;98603.34;5034173;28;20322;-71
2022/05/03 08:05:25;;;;;;;4.25;3.70;;;;;;;30.13;30.24;98604.25;5034022;28;20021;-70
2022/05/03 08:07:51;;;;;;;6.57;3.45;;;;;;;28.52;32.73;98606.44;5032977;28;20109;-71
2022/05/03 08:10:16;;;;;;;4.38;3.58;;;;;;;28.19;33.09;98606.06;5032445;28;20026;-70
2022/05/03 08:12:43;;;;;;;5.53;3.97;;;;;;;24.80;37.88;98598.25;5034807;28;20467;-70
2022/05/03 08:15:09;;;;;;;5.70;4.00;;;;;;;25.32;38.71;98609.31;5029820;28;20021;-70
2022/05/03 08:17:34;;;;;;;4.53;4.05;;;;;;;24.11;39.13;98620.00;5030846;28;20084;-70
2022/05/03 08:19:59;;;;;;;5.95;4.45;;;;;;;23.34;42.11;98618.13;5029966;28;20028;-70
2022/05/03 08:22:25;;;;;;;5.45;4.15;;;;;;;22.40;43.98;98614.72;5030941;28;20025;-70
2022/05/03 08:24:51;;;;;;;4.70;4.20;;;;;;;23.96;42.38;98606.38;5031616;28;20722;-70
2022/05/03 08:27:17;;;;;;;4.95;3.42;;;;;;;25.51;38.66;98601.72;5032084;28;20108;-70
2022/05/03 08:29:42;;;;;;;4.38;3.50;;;;;;;26.26;37.46;98583.03;5054744;22;20108;-72
2022/05/03 08:32:09;;;;;;;4.50;3.65;;;;;;;26.97;36.13;98599.13;5063032;28;20445;-72
2022/05/03 08:34:35;;;;;;;6.90;3.15;;;;;;;28.99;33.19;98598.22;5036268;28;20059;-71
2022/05/03 08:42:28;;;;;;;3.78;2.72;;;;;;;30.21;30.39;98602.53;5042972;28;20028;-71
2022/05/03 08:44:55;;;;;;;5.43;3.17;;;;;;;29.49;30.83;98613.53;5045512;28;20089;-70
2022/05/03 08:47:24;;;;;;;4.55;2.83;;;;;;;29.22;30.94;98601.66;5045228;28;20044;-70
2022/05/03 08:49:58;;;;;;;3.65;3.10;;;;;;;30.35;30.42;98615.13;5046000;28;20518;-70
2022/05/03 08:52:27;;;;;;;3.50;2.88;;;;;;;32.60;28.74;98600.97;5047123;28;20025;-70
2022/05/03 08:54:55;;;;;;;5.45;3.00;;;;;;;32.68;27.32;98606.41;5036582;28;20018;-71
2022/05/03 08:57:21;;;;;;;4.50;3.85;;;;;;;31.63;29.10;98607.06;5031766;28;20116;-71
2022/05/03 08:59:48;;;;;;;3.80;3.03;;;;;;;32.30;28.00;98615.22;5047049;28;20115;-71
2022/05/03 09:02:14;;;;;;;2.95;2.70;;;;;;;31.52;28.90;98611.47;5032710;28;20028;-73
2022/05/03 09:04:40;;;;;;;4.05;2.47;;;;;;;30.84;29.66;98605.41;5025080;28;20026;-72
2022/05/03 09:07:20;;;;;;;3.97;2.40;;;;;;;30.04;31.46;98609.88;5037576;28;20024;-73
2022/05/03 09:09:46;;;;;;;3.22;2.80;;;;;;;30.42;30.49;98608.19;5040916;28;20033;-72
2022/05/03 09:12:28;;;;;;;6.68;3.35;;;;;;;29.27;31.53;98611.81;5033253;28;20025;-70
2022/05/03 09:14:58;;;;;;;3.63;3.22;;;;;;;27.46;33.38;98611.19;5032887;28;20049;-70
2022/05/03 09:17:43;;;;;;;3.95;3.00;;;;;;;29.38;32.12;98604.72;5018587;28;20056;-71
2022/05/03 09:25:53;;;;;;;3.08;2.70;;;;;;;33.06;27.28;98593.88;5035726;28;20035;-71
2022/05/03 09:28:21;;;;;;;3.20;2.90;;;;;;;33.27;26.41;98599.25;5031801;28;20104;-70
2022/05/03 09:30:51;;;;;;;2.80;2.35;;;;;;;35.17;24.39;98591.69;5030847;28;20025;-70
2022/05/03 09:33:22;;;;;;;5.47;1.85;;;;;;;34.98;24.31;98590.50;5031578;28;20037;-71
2022/05/03 09:35:49;;;;;;;3.33;2.20;;;;;;;34.69;25.28;98591.94;5031432;28;20553;-71
2022/05/03 09:38:15;;;;;;;2.55;1.80;;;;;;;36.09;22.19;98591.72;5042409;28;20091;-74
2022/05/03 09:40:42;;;;;;;3.95;2.03;;;;;;;36.17;22.70;98588.59;5028924;28;20033;-71
2022/05/03 09:43:08;;;;;;;1.90;1.70;;;;;;;35.08;22.98;98591.91;5025441;28;20021;-71
2022/05/03 09:45:34;;;;;;;2.20;1.80;;;;;;;34.46;22.90;98591.81;5032125;28;20095;-71
2022/05/03 09:48:02;;;;;;;2.78;1.70;;;;;;;35.03;24.44;98587.38;5031883;28;20072;-71
2022/05/03 09:50:30;;;;;;;1.85;1.60;;;;;;;36.09;23.55;98580.44;5031459;28;20021;-71
2022/05/03 09:52:56;;;;;;;3.53;1.73;;;;;;;36.20;22.54;98579.41;5031827;28;20032;-70
2022/05/03 09:55:33;;;;;;;2.30;2.00;;;;;;;36.26;21.68;98573.44;5023995;28;20096;-71
2022/05/03 09:58:02;;;;;;;2.40;1.45;;;;;;;37.23;22.40;98581.13;5022043;28;20057;-73
2022/05/03 10:00:29;;;;;;;5.22;1.63;;;;;;;35.48;23.14;98568.16;5054935;28;20025;-74
2022/05/03 10:02:54;;;;;;;2.28;1.63;;;;;;;33.56;25.00;98572.00;5031538;28;20040;-72
2022/05/03 10:05:21;;;;;;;1.55;1.45;;;;;;;32.04;25.98;98571.66;5028603;28;20025;-72
2022/05/03 10:07:47;;;;;;;2.28;1.30;;;;;;;31.50;27.15;98557.06;5032196;28;20112;-73
2022/05/03 10:10:17;;;;;;;3.33;1.52;;;;;;;33.06;25.06;98565.84;5047557;28;20017;-72
2022/05/03 10:12:43;;;;;;;1.90;1.50;;;;;;;34.60;24.88;98563.22;5024433;28;20087;-72
2022/05/03 10:15:09;;;;;;;5.18;1.85;;;;;;;34.63;24.36;98565.28;5025835;28;20030;-72
2022/05/03 10:20:42;;;;;;;4.25;1.80;;;;;;;35.30;22.54;98554.56;5040843;28;20132;-72
2022/05/03 10:23:24;;;;;;;3.28;2.00;;;;;;;34.58;23.41;98555.16;5024690;28;20025;-74
2022/05/03 10:25:52;;;;;;;3.05;1.90;;;;;;;34.79;24.15;98551.97;5022675;28;20065;-76
2022/05/03 10:28:17;;;;;;;5.90;2.30;;;;;;;35.05;23.64;98556.88;5024098;28;20471;-74
2022/05/03 10:31:06;;;;;;;3.03;1.80;;;;;;;34.41;24.50;98547.16;5028300;28;20112;-75
2022/05/03 10:33:31;;;;;;;2.55;2.22;;;;;;;34.28;24.42;98545.66;5036767;28;20080;-72
2022/05/03 10:36:23;;;;;;;2.90;1.90;;;;;;;34.33;24.24;98553.78;5026146;28;20029;-72
2022/05/03 10:38:48;;;;;;;2.38;1.80;;;;;;;35.59;23.46;98543.84;5026914;28;20287;-72
2022/05/03 10:41:23;;;;;;;5.60;2.05;;;;;;;36.15;22.66;98537.47;5019722;28;20033;-72
2022/05/03 10:43:49;;;;;;;2.75;1.77;;;;;;;35.87;23.18;98522.94;5018118;28;20433;-73
2022/05/03 10:46:20;;;;;;;3.33;2.10;;;;;;;31.05;27.28;98555.06;5023128;28;20044;-72
2022/05/03 10:49:04;;;;;;;4.13;2.10;;;;;;;28.91;29.68;98548.94;5028425;28;20110;-72
2022/05/03 10:51:30;;;;;;;3.75;2.45;;;;;;;26.93;32.53;98548.13;5027095;28;20033;-72
2022/05/03 10:53:59;;;;;;;4.38;2.63;;;;;;;26.71;34.04;98549.78;5017856;28;20357;-71
2022/05/03 10:56:25;;;;;;;5.38;2.65;;;;;;;26.47;34.46;98535.38;5029230;28;20026;-72
2022/05/03 10:59:14;;;;;;;4.72;2.35;;;;;;;25.89;35.37;98548.91;5026723;28;20509;-71
2022/05/03 11:01:57;;;;;;;4.63;2.50;;;;;;;26.75;33.64;98544.41;5028321;28;20112;-71
2022/05/03 11:04:24;;;;;;;3.72;2.35;;;;;;;29.93;30.17;98531.34;5026918;28;20037;-71
2022/05/03 11:06:50;;;;;;;2.97;2.63;;;;;;;30.52;27.96;98529.59;5020599;28;20037;-71
2022/05/03 11:09:33;;;;;;;4.60;2.10;;;;;;;32.45;25.72;98524.06;5031930;28;20451;-72
2022/05/03 11:12:00;;;;;;;4.03;2.20;;;;;;;33.66;25.20;98525.75;5026098;28;20129;-72
2022/05/03 11:14:26;;;;;;;2.80;2.27;;;;;;;34.41;24.24;98531.09;5020603;28;20444;-72
2022/05/03 11:17:08;;;;;;;3.20;2.20;;;;;;;34.59;23.96;98531.50;5025704;28;20363;-71
2022/05/03 11:19:36;;;;;;;3.72;2.72;;;;;;;34.39;24.02;98527.84;5022478;28;20042;-71
2022/05/03 11:22:08;;;;;;;4.07;2.78;;;;;;;32.61;25.56;98507.34;5024608;28;20104;-72
2022/05/03 11:24:33;;;;;;;3.70;2.63;;;;;;;30.59;28.97;98518.69;5024003;28;20029;-71
2022/05/03 11:27:02;;;;;;;4.65;2.63;;;;;;;29.24;30.92;98524.13;5021018;28;20022;-72
2022/05/03 11:29:31;;;;;;;;;;;;;;;29.45;31.01;98521.44;5021822;28;20035;-72
2022/05/03 11:31:59;;;;;;;4.20;2.03;;;;;;;29.41;29.13;98526.03;5019334;28;20445;-71
2022/05/03 11:34:24;;;;;;;4.10;1.35;;;;;;;29.36;26.56;98522.59;5025673;28;20025;-71
2022/05/03 11:36:50;;;;;;;5.45;1.95;;;;;;;30.18;27.64;98519.50;5027668;28;20037;-71
2022/05/03 11:39:20;;;;;;;3.13;1.88;;;;;;;31.43;24.23;98510.91;5030728;28;20625;-71
2022/05/03 11:41:46;;;;;;;4.45;2.30;;;;;;;32.16;25.38;98508.41;5024957;28;20033;-71
2022/05/03 11:44:12;;;;;;;2.67;2.20;;;;;;;32.31;24.93;98516.06;5026137;28;20025;-72
2022/05/03 11:46:39;;;;;;;4.30;3.45;;;;;;;32.48;26.13;98490.59;5026627;28;20033;-72
2022/05/03 11:49:08;;;;;;;6.97;3.80;;;;;;;31.65;26.96;98501.25;5024391;28;20025;-71
2022/05/03 11:57:10;;;;;;;4.30;3.42;;;;;;;34.18;24.75;98486.06;5028399;28;20072;-72
2022/05/03 11:59:35;;;;;;;9.48;3.67;;;;;;;33.44;25.64;98485.94;5024957;28;20473;-72
2022/05/03 12:02:22;;;;;;;2.40;2.10;;;;;;;33.96;25.16;98495.19;5022893;28;20029;-72
2022/05/03 12:05:11;;;;;;;3.83;2.30;;;;;;;33.93;23.84;98484.69;5026494;28;20037;-72
2022/05/03 12:08:21;;;;;;;2.65;2.03;;;;;;;35.06;22.37;98485.41;5022870;28;20030;-71
2022/05/03 12:10:48;;;;;;;2.30;1.40;;;;;;;37.13;20.58;98469.81;5037939;28;20048;-71
2022/05/03 12:13:25;;;;;;;5.15;1.88;;;;;;;36.99;20.95;98478.09;5031094;28;20878;-71
2022/05/03 12:15:56;;;;;;;3.33;2.33;;;;;;;36.78;21.51;98487.94;5029117;28;20030;-71
2022/05/03 12:18:29;;;;;;;2.83;2.60;;;;;;;35.92;21.99;98497.28;5043893;28;20498;-71